Terminal Aerodrome Forecast
Issued by NWS St Louis, MO

Home | Current Version | Previous Version | Text Only | Print | Product List | Glossary On
Versions: 1 2 3 4 5 6 7 8 9 10 11 12 13 14 15 16 17 18
000
FTUS43 KLSX 011140
TAFCOU
TAF
KCOU 011140Z 0112/0212 18007KT P6SM FEW080
      TEMPO 0112/0113 5SM BR
     FM011700 21008KT P6SM SCT045
     FM020100 17004KT P6SM SKC=

USA.gov is the U.S. government's official web portal to all federal, state and local government web resources and services.